sensor_id;sensor_type;location;lat;lon;timestamp;pressure;altitude;pressure_sealevel;temperature;humidity
18858;BME280;9558;50.178;8.370;2023-02-04T00:01:08;99483.00;;;6.80;99.54
18858;BME280;9558;50.178;8.370;2023-02-04T00:03:35;99491.44;;;6.82;100.00
18858;BME280;9558;50.178;8.370;2023-02-04T00:06:01;99483.00;;;6.80;99.77
18858;BME280;9558;50.178;8.370;2023-02-04T00:08:28;99498.56;;;6.78;100.00
18858;BME280;9558;50.178;8.370;2023-02-04T00:10:54;99501.13;;;6.78;99.76
18858;BME280;9558;50.178;8.370;2023-02-04T00:13:22;99498.44;;;6.80;99.52
18858;BME280;9558;50.178;8.370;2023-02-04T00:15:48;99505.47;;;6.78;99.41
18858;BME280;9558;50.178;8.370;2023-02-04T00:18:15;99508.97;;;6.77;99.34
18858;BME280;9558;50.178;8.370;2023-02-04T00:20:41;99511.44;;;6.78;99.37
18858;BME280;9558;50.178;8.370;2023-02-04T00:23:08;99504.63;;;6.77;99.80
18858;BME280;9558;50.178;8.370;2023-02-04T00:25:34;99507.31;;;6.75;100.00
18858;BME280;9558;50.178;8.370;2023-02-04T00:28:00;99514.13;;;6.77;99.27
18858;BME280;9558;50.178;8.370;2023-02-04T00:30:29;99507.31;;;6.75;98.85
18858;BME280;9558;50.178;8.370;2023-02-04T00:32:56;99504.88;;;6.74;98.72
18858;BME280;9558;50.178;8.370;2023-02-04T00:35:23;99516.94;;;6.73;99.04
18858;BME280;9558;50.178;8.370;2023-02-04T00:37:50;99504.63;;;6.66;98.07
18858;BME280;9558;50.178;8.370;2023-02-04T00:40:17;99515.03;;;6.64;98.28
18858;BME280;9558;50.178;8.370;2023-02-04T00:42:43;99515.16;;;6.63;98.02
18858;BME280;9558;50.178;8.370;2023-02-04T00:45:10;99519.00;;;6.57;97.98
18858;BME280;9558;50.178;8.370;2023-02-04T00:47:39;99514.09;;;6.54;97.35
18858;BME280;9558;50.178;8.370;2023-02-04T00:50:05;99522.75;;;6.53;97.99
18858;BME280;9558;50.178;8.370;2023-02-04T00:52:32;99527.19;;;6.51;97.74
18858;BME280;9558;50.178;8.370;2023-02-04T00:54:58;99522.19;;;6.49;98.05
18858;BME280;9558;50.178;8.370;2023-02-04T00:57:25;99523.22;;;6.47;99.26
18858;BME280;9558;50.178;8.370;2023-02-04T00:59:51;99514.81;;;6.45;99.08
18858;BME280;9558;50.178;8.370;2023-02-04T01:02:18;99524.25;;;6.44;99.40
18858;BME280;9558;50.178;8.370;2023-02-04T01:04:46;99531.88;;;6.46;99.60
18858;BME280;9558;50.178;8.370;2023-02-04T01:07:12;99531.88;;;6.46;99.44
18858;BME280;9558;50.178;8.370;2023-02-04T01:09:39;99533.97;;;6.40;98.89
18858;BME280;9558;50.178;8.370;2023-02-04T01:12:05;99541.69;;;6.40;98.40
18858;BME280;9558;50.178;8.370;2023-02-04T01:14:32;99538.41;;;6.38;98.77
18858;BME280;9558;50.178;8.370;2023-02-04T01:16:58;99548.91;;;6.35;98.85
18858;BME280;9558;50.178;8.370;2023-02-04T01:19:25;99549.84;;;6.34;99.03
18858;BME280;9558;50.178;8.370;2023-02-04T01:21:52;99549.84;;;6.34;99.35
18858;BME280;9558;50.178;8.370;2023-02-04T01:24:19;99560.97;;;6.35;99.36
18858;BME280;9558;50.178;8.370;2023-02-04T01:26:45;99559.44;;;6.32;99.70
18858;BME280;9558;50.178;8.370;2023-02-04T01:29:12;99554.06;;;6.35;99.80
18858;BME280;9558;50.178;8.370;2023-02-04T01:31:38;99556.88;;;6.32;99.48
18858;BME280;9558;50.178;8.370;2023-02-04T01:34:05;99563.88;;;6.30;99.03
18858;BME280;9558;50.178;8.370;2023-02-04T01:36:31;99567.25;;;6.31;99.57
18858;BME280;9558;50.178;8.370;2023-02-04T01:38:59;99573.44;;;6.28;100.00
18858;BME280;9558;50.178;8.370;2023-02-04T01:41:26;99571.69;;;6.29;98.69
18858;BME280;9558;50.178;8.370;2023-02-04T01:43:53;99566.06;;;6.23;98.80
18858;BME280;9558;50.178;8.370;2023-02-04T01:46:19;99565.97;;;6.25;99.07
18858;BME280;9558;50.178;8.370;2023-02-04T01:48:46;99565.97;;;6.25;99.40
18858;BME280;9558;50.178;8.370;2023-02-04T01:51:15;99572.25;;;6.21;98.64
18858;BME280;9558;50.178;8.370;2023-02-04T01:53:42;99575.63;;;6.21;98.27
18858;BME280;9558;50.178;8.370;2023-02-04T01:56:17;99581.84;;;6.19;98.26
18858;BME280;9558;50.178;8.370;2023-02-04T01:58:44;99587.19;;;6.16;98.69
18858;BME280;9558;50.178;8.370;2023-02-04T02:01:13;99590.72;;;6.15;98.04
18858;BME280;9558;50.178;8.370;2023-02-04T02:03:39;99576.91;;;6.16;98.58
18858;BME280;9558;50.178;8.370;2023-02-04T02:06:08;99585.56;;;6.15;97.76
18858;BME280;9558;50.178;8.370;2023-02-04T02:08:35;99578.78;;;6.14;98.52
18858;BME280;9558;50.178;8.370;2023-02-04T02:11:03;99586.38;;;6.15;98.02
18858;BME280;9558;50.178;8.370;2023-02-04T02:13:31;99595.84;;;6.15;98.69
18858;BME280;9558;50.178;8.370;2023-02-04T02:15:57;99594.44;;;6.11;98.12
18858;BME280;9558;50.178;8.370;2023-02-04T02:18:24;99601.22;;;6.12;97.86
18858;BME280;9558;50.178;8.370;2023-02-04T02:20:50;99602.13;;;6.11;97.57
18858;BME280;9558;50.178;8.370;2023-02-04T02:23:26;99582.72;;;6.07;98.05
18858;BME280;9558;50.178;8.370;2023-02-04T02:25:56;99591.13;;;6.09;98.05
18858;BME280;9558;50.178;8.370;2023-02-04T02:28:23;99598.38;;;6.03;97.95
18858;BME280;9558;50.178;8.370;2023-02-04T02:30:50;99600.94;;;6.03;97.87
18858;BME280;9558;50.178;8.370;2023-02-04T02:33:18;99601.28;;;5.99;97.70
18858;BME280;9558;50.178;8.370;2023-02-04T02:35:46;99607.22;;;5.99;98.31
18858;BME280;9558;50.178;8.370;2023-02-04T02:38:13;99599.63;;;5.98;97.58
18858;BME280;9558;50.178;8.370;2023-02-04T02:40:40;99602.28;;;5.96;98.09
18858;BME280;9558;50.178;8.370;2023-02-04T02:43:11;99607.41;;;5.96;98.18
18858;BME280;9558;50.178;8.370;2023-02-04T02:45:40;99616.06;;;5.95;97.59
18858;BME280;9558;50.178;8.370;2023-02-04T02:48:08;99612.78;;;5.93;97.87
18858;BME280;9558;50.178;8.370;2023-02-04T02:50:36;99613.59;;;5.94;98.13
18858;BME280;9558;50.178;8.370;2023-02-04T02:53:03;99610.31;;;5.92;96.55
18858;BME280;9558;50.178;8.370;2023-02-04T02:55:31;99616.50;;;5.89;97.34
18858;BME280;9558;50.178;8.370;2023-02-04T02:57:57;99614.84;;;5.88;97.67
18858;BME280;9558;50.178;8.370;2023-02-04T03:00:27;99616.59;;;5.87;97.08
18858;BME280;9558;50.178;8.370;2023-02-04T03:02:57;99625.13;;;5.88;97.31
18858;BME280;9558;50.178;8.370;2023-02-04T03:05:26;99622.88;;;5.83;97.56
18858;BME280;9558;50.178;8.370;2023-02-04T03:07:54;99623.69;;;5.84;97.81
18858;BME280;9558;50.178;8.370;2023-02-04T03:10:20;99635.84;;;5.82;98.17
18858;BME280;9558;50.178;8.370;2023-02-04T03:12:47;99637.00;;;5.78;97.75
18858;BME280;9558;50.178;8.370;2023-02-04T03:15:14;99636.06;;;5.79;98.11
18858;BME280;9558;50.178;8.370;2023-02-04T03:17:42;99653.53;;;5.74;98.49
18858;BME280;9558;50.178;8.370;2023-02-04T03:20:12;99650.16;;;5.73;98.58
18858;BME280;9558;50.178;8.370;2023-02-04T03:22:39;99658.69;;;5.74;98.10
18858;BME280;9558;50.178;8.370;2023-02-04T03:25:06;99665.56;;;5.73;98.26
18858;BME280;9558;50.178;8.370;2023-02-04T03:27:33;99668.22;;;5.71;97.95
18858;BME280;9558;50.178;8.370;2023-02-04T03:29:59;99663.09;;;5.71;98.61
18858;BME280;9558;50.178;8.370;2023-02-04T03:32:26;99662.28;;;5.71;98.06
18858;BME280;9558;50.178;8.370;2023-02-04T03:34:53;99667.41;;;5.71;98.27
18858;BME280;9558;50.178;8.370;2023-02-04T03:37:20;99675.94;;;5.71;98.69
18858;BME280;9558;50.178;8.370;2023-02-04T03:39:46;99675.94;;;5.71;98.83
18858;BME280;9558;50.178;8.370;2023-02-04T03:42:13;99676.66;;;5.74;98.24
18858;BME280;9558;50.178;8.370;2023-02-04T03:44:39;99687.03;;;5.72;98.83
18858;BME280;9558;50.178;8.370;2023-02-04T03:47:06;99691.16;;;5.75;99.25
18858;BME280;9558;50.178;8.370;2023-02-04T03:49:32;99697.09;;;5.75;99.07
18858;BME280;9558;50.178;8.370;2023-02-04T03:52:01;99696.28;;;5.75;99.19
18858;BME280;9558;50.178;8.370;2023-02-04T03:54:28;99702.34;;;5.74;99.01
18858;BME280;9558;50.178;8.370;2023-02-04T03:56:54;99707.28;;;5.77;98.88
18858;BME280;9558;50.178;8.370;2023-02-04T03:59:21;99707.50;;;5.74;98.93
18858;BME280;9558;50.178;8.370;2023-02-04T04:01:47;99709.25;;;5.73;99.00
18858;BME280;9558;50.178;8.370;2023-02-04T04:04:14;99718.09;;;5.69;99.91
18858;BME280;9558;50.178;8.370;2023-02-04T04:06:40;99716.66;;;5.65;99.26
18858;BME280;9558;50.178;8.370;2023-02-04T04:09:08;99711.50;;;5.65;99.39
18858;BME280;9558;50.178;8.370;2023-02-04T04:11:35;99721.16;;;5.61;99.67
18858;BME280;9558;50.178;8.370;2023-02-04T04:14:01;99728.97;;;5.60;99.91
18858;BME280;9558;50.178;8.370;2023-02-04T04:16:28;99736.19;;;5.54;99.45
18858;BME280;9558;50.178;8.370;2023-02-04T04:18:54;99735.34;;;5.54;99.88
18858;BME280;9558;50.178;8.370;2023-02-04T04:21:21;99731.22;;;5.51;100.00
18858;BME280;9558;50.178;8.370;2023-02-04T04:23:47;99733.09;;;5.49;100.00
18858;BME280;9558;50.178;8.370;2023-02-04T04:26:15;99732.28;;;5.49;100.00
18858;BME280;9558;50.178;8.370;2023-02-04T04:28:42;99734.13;;;5.47;100.00
18858;BME280;9558;50.178;8.370;2023-02-04T04:31:08;99737.59;;;5.46;100.00
18858;BME280;9558;50.178;8.370;2023-02-04T04:33:35;99731.66;;;5.45;100.00
18858;BME280;9558;50.178;8.370;2023-02-04T04:36:03;99734.22;;;5.45;100.00
18858;BME280;9558;50.178;8.370;2023-02-04T04:38:29;99733.53;;;5.43;100.00
18858;BME280;9558;50.178;8.370;2023-02-04T04:40:56;99731.97;;;5.41;100.00
18858;BME280;9558;50.178;8.370;2023-02-04T04:43:24;99738.88;;;5.40;100.00
18858;BME280;9558;50.178;8.370;2023-02-04T04:45:50;99739.88;;;5.38;100.00
18858;BME280;9558;50.178;8.370;2023-02-04T04:48:17;99740.81;;;5.36;100.00
18858;BME280;9558;50.178;8.370;2023-02-04T04:50:46;99730.63;;;5.35;100.00
18858;BME280;9558;50.178;8.370;2023-02-04T04:53:12;99728.19;;;5.33;100.00
18858;BME280;9558;50.178;8.370;2023-02-04T04:55:39;99732.69;;;5.30;100.00
18858;BME280;9558;50.178;8.370;2023-02-04T04:58:06;99727.53;;;5.30;100.00
18858;BME280;9558;50.178;8.370;2023-02-04T05:00:34;99724.47;;;5.25;100.00
18858;BME280;9558;50.178;8.370;2023-02-04T05:03:01;99733.31;;;5.21;100.00
18858;BME280;9558;50.178;8.370;2023-02-04T05:05:27;99739.25;;;5.21;100.00
18858;BME280;9558;50.178;8.370;2023-02-04T05:07:54;99739.47;;;5.18;100.00
18858;BME280;9558;50.178;8.370;2023-02-04T05:10:21;99744.59;;;5.18;100.00
18858;BME280;9558;50.178;8.370;2023-02-04T05:12:48;99748.06;;;5.17;100.00
18858;BME280;9558;50.178;8.370;2023-02-04T05:15:15;99743.16;;;5.14;100.00
18858;BME280;9558;50.178;8.370;2023-02-04T05:17:43;99755.97;;;5.14;100.00
18858;BME280;9558;50.178;8.370;2023-02-04T05:20:10;99756.19;;;5.11;100.00
18858;BME280;9558;50.178;8.370;2023-02-04T05:22:36;99753.63;;;5.11;100.00
18858;BME280;9558;50.178;8.370;2023-02-04T05:25:03;99763.19;;;5.09;100.00
18858;BME280;9558;50.178;8.370;2023-02-04T05:27:30;99765.53;;;5.12;100.00
18858;BME280;9558;50.178;8.370;2023-02-04T05:29:56;99767.16;;;5.13;100.00
18858;BME280;9558;50.178;8.370;2023-02-04T05:32:23;99773.13;;;5.13;100.00
18858;BME280;9558;50.178;8.370;2023-02-04T05:34:50;99762.88;;;5.13;100.00
18858;BME280;9558;50.178;8.370;2023-02-04T05:37:17;99760.19;;;5.15;100.00
18858;BME280;9558;50.178;8.370;2023-02-04T05:39:45;99756.72;;;5.16;100.00
18858;BME280;9558;50.178;8.370;2023-02-04T05:42:11;99762.34;;;5.21;100.00
18858;BME280;9558;50.178;8.370;2023-02-04T05:44:38;99764.00;;;5.22;100.00
18858;BME280;9558;50.178;8.370;2023-02-04T05:47:04;99771.69;;;5.22;100.00
18858;BME280;9558;50.178;8.370;2023-02-04T05:49:31;99777.44;;;5.26;100.00
18858;BME280;9558;50.178;8.370;2023-02-04T05:51:59;99780.94;;;5.25;100.00
18858;BME280;9558;50.178;8.370;2023-02-04T05:54:25;99777.66;;;5.23;100.00
18858;BME280;9558;50.178;8.370;2023-02-04T05:56:52;99781.75;;;5.25;100.00
18858;BME280;9558;50.178;8.370;2023-02-04T05:59:19;99792.84;;;5.26;100.00
18858;BME280;9558;50.178;8.370;2023-02-04T06:01:45;99783.63;;;5.23;100.00
18858;BME280;9558;50.178;8.370;2023-02-04T06:04:12;99790.19;;;5.27;100.00
18858;BME280;9558;50.178;8.370;2023-02-04T06:06:39;99792.78;;;5.27;100.00
18858;BME280;9558;50.178;8.370;2023-02-04T06:09:07;99799.63;;;5.27;100.00
18858;BME280;9558;50.178;8.370;2023-02-04T06:11:34;99807.22;;;5.28;100.00
18858;BME280;9558;50.178;8.370;2023-02-04T06:14:00;99803.75;;;5.29;100.00
18858;BME280;9558;50.178;8.370;2023-02-04T06:16:26;99800.47;;;5.27;100.00
18858;BME280;9558;50.178;8.370;2023-02-04T06:18:53;99801.38;;;5.26;100.00
18858;BME280;9558;50.178;8.370;2023-02-04T06:21:19;99798.81;;;5.26;100.00
18858;BME280;9558;50.178;8.370;2023-02-04T06:23:46;99789.66;;;5.22;100.00
18858;BME280;9558;50.178;8.370;2023-02-04T06:26:14;99797.38;;;5.22;100.00
18858;BME280;9558;50.178;8.370;2023-02-04T06:28:40;99798.19;;;5.23;100.00
18858;BME280;9558;50.178;8.370;2023-02-04T06:31:07;99796.56;;;5.22;100.00
18858;BME280;9558;50.178;8.370;2023-02-04T06:33:34;99799.94;;;5.22;100.00
18858;BME280;9558;50.178;8.370;2023-02-04T06:36:01;99806.81;;;5.22;100.00
18858;BME280;9558;50.178;8.370;2023-02-04T06:38:27;99810.91;;;5.24;100.00
18858;BME280;9558;50.178;8.370;2023-02-04T06:40:54;99803.94;;;5.26;100.00
18858;BME280;9558;50.178;8.370;2023-02-04T06:43:22;99801.28;;;5.28;100.00
18858;BME280;9558;50.178;8.370;2023-02-04T06:45:49;99807.22;;;5.28;100.00
18858;BME280;9558;50.178;8.370;2023-02-04T06:48:16;99814.94;;;5.28;100.00
18858;BME280;9558;50.178;8.370;2023-02-04T06:50:42;99819.16;;;5.29;100.00
18858;BME280;9558;50.178;8.370;2023-02-04T06:53:09;99818.03;;;5.33;100.00
18858;BME280;9558;50.178;8.370;2023-02-04T06:55:36;99817.00;;;5.36;100.00
18858;BME280;9558;50.178;8.370;2023-02-04T06:58:02;99830.44;;;5.40;100.00
18858;BME280;9558;50.178;8.370;2023-02-04T07:00:30;99836.59;;;5.37;100.00
18858;BME280;9558;50.178;8.370;2023-02-04T07:02:56;99844.22;;;5.39;100.00
18858;BME280;9558;50.178;8.370;2023-02-04T07:05:24;99852.66;;;5.41;100.00
18858;BME280;9558;50.178;8.370;2023-02-04T07:07:50;99853.34;;;5.43;100.00
18858;BME280;9558;50.178;8.370;2023-02-04T07:10:17;99867.84;;;5.44;100.00
18858;BME280;9558;50.178;8.370;2023-02-04T07:12:44;99862.72;;;5.44;100.00
18858;BME280;9558;50.178;8.370;2023-02-04T07:15:11;99873.91;;;5.43;100.00
18858;BME280;9558;50.178;8.370;2023-02-04T07:17:39;99873.91;;;5.43;100.00
18858;BME280;9558;50.178;8.370;2023-02-04T07:20:07;99875.66;;;5.42;100.00
18858;BME280;9558;50.178;8.370;2023-02-04T07:22:33;99873.19;;;5.41;100.00
18858;BME280;9558;50.178;8.370;2023-02-04T07:25:00;99868.06;;;5.41;100.00
18858;BME280;9558;50.178;8.370;2023-02-04T07:27:26;99875.75;;;5.41;100.00
18858;BME280;9558;50.178;8.370;2023-02-04T07:29:53;99873.19;;;5.41;100.00
18858;BME280;9558;50.178;8.370;2023-02-04T07:32:19;99878.22;;;5.42;100.00
18858;BME280;9558;50.178;8.370;2023-02-04T07:34:47;99883.47;;;5.41;100.00
18858;BME280;9558;50.178;8.370;2023-02-04T07:37:13;99879.78;;;5.45;100.00
18858;BME280;9558;50.178;8.370;2023-02-04T07:39:40;99889.09;;;5.46;100.00
18858;BME280;9558;50.178;8.370;2023-02-04T07:42:06;99896.63;;;5.49;100.00
18858;BME280;9558;50.178;8.370;2023-02-04T07:44:33;99910.38;;;5.48;100.00
18858;BME280;9558;50.178;8.370;2023-02-04T07:46:59;99910.47;;;5.46;100.00
18858;BME280;9558;50.178;8.370;2023-02-04T07:49:26;99911.19;;;5.48;100.00
18858;BME280;9558;50.178;8.370;2023-02-04T07:51:54;99917.78;;;5.52;100.00
18858;BME280;9558;50.178;8.370;2023-02-04T07:54:22;99924.06;;;5.61;100.00
18858;BME280;9558;50.178;8.370;2023-02-04T07:56:48;99932.19;;;5.68;100.00
18858;BME280;9558;50.178;8.370;2023-02-04T07:59:15;99921.50;;;5.74;100.00
18858;BME280;9558;50.178;8.370;2023-02-04T08:01:41;99930.38;;;5.83;100.00
18858;BME280;9558;50.178;8.370;2023-02-04T08:04:08;99924.63;;;5.92;100.00
18858;BME280;9558;50.178;8.370;2023-02-04T08:06:34;99935.75;;;6.05;100.00
18858;BME280;9558;50.178;8.370;2023-02-04T08:09:02;99931.56;;;6.17;100.00
18858;BME280;9558;50.178;8.370;2023-02-04T08:11:29;99935.56;;;6.21;100.00
18858;BME280;9558;50.178;8.370;2023-02-04T08:13:56;99942.56;;;6.32;100.00
18858;BME280;9558;50.178;8.370;2023-02-04T08:16:22;99938.66;;;6.39;100.00
18858;BME280;9558;50.178;8.370;2023-02-04T08:18:49;99942.66;;;6.44;100.00
18858;BME280;9558;50.178;8.370;2023-02-04T08:21:15;99945.75;;;6.49;100.00
18858;BME280;9558;50.178;8.370;2023-02-04T08:23:42;99949.72;;;6.53;100.00
18858;BME280;9558;50.178;8.370;2023-02-04T08:26:10;99956.31;;;6.57;100.00
18858;BME280;9558;50.178;8.370;2023-02-04T08:28:37;99962.69;;;6.64;100.00
18858;BME280;9558;50.178;8.370;2023-02-04T08:31:04;99955.91;;;6.63;100.00
18858;BME280;9558;50.178;8.370;2023-02-04T08:33:31;99961.31;;;6.71;100.00
18858;BME280;9558;50.178;8.370;2023-02-04T08:35:58;99963.78;;;6.73;99.95
18858;BME280;9558;50.178;8.370;2023-02-04T08:38:24;99970.19;;;6.80;100.00
18858;BME280;9558;50.178;8.370;2023-02-04T08:40:51;99977.06;;;6.80;99.81
18858;BME280;9558;50.178;8.370;2023-02-04T08:43:19;99971.22;;;6.78;99.78
18858;BME280;9558;50.178;8.370;2023-02-04T08:45:45;99981.41;;;6.79;100.00
18858;BME280;9558;50.178;8.370;2023-02-04T08:48:12;99971.50;;;6.86;100.00
18858;BME280;9558;50.178;8.370;2023-02-04T08:50:38;99968.72;;;6.89;100.00
18858;BME280;9558;50.178;8.370;2023-02-04T08:53:05;99971.06;;;6.92;100.00
18858;BME280;9558;50.178;8.370;2023-02-04T08:55:31;99984.44;;;6.97;100.00
18858;BME280;9558;50.178;8.370;2023-02-04T08:57:58;99983.19;;;7.03;100.00
18858;BME280;9558;50.178;8.370;2023-02-04T09:00:27;99985.47;;;7.07;100.00
18858;BME280;9558;50.178;8.370;2023-02-04T09:02:54;99988.50;;;7.13;100.00
18858;BME280;9558;50.178;8.370;2023-02-04T09:05:20;99995.09;;;7.17;99.45
18858;BME280;9558;50.178;8.370;2023-02-04T09:07:47;100003.75;;;7.16;98.13
18858;BME280;9558;50.178;8.370;2023-02-04T09:10:14;100000.13;;;7.18;99.32
18858;BME280;9558;50.178;8.370;2023-02-04T09:12:40;100010.31;;;7.20;99.40
18858;BME280;9558;50.178;8.370;2023-02-04T09:15:08;100006.84;;;7.21;99.70
18858;BME280;9558;50.178;8.370;2023-02-04T09:17:36;100010.44;;;7.18;99.20
18858;BME280;9558;50.178;8.370;2023-02-04T09:20:04;100006.84;;;7.21;99.50
18858;BME280;9558;50.178;8.370;2023-02-04T09:22:31;100011.97;;;7.21;97.51
18858;BME280;9558;50.178;8.370;2023-02-04T09:24:57;100018.16;;;7.18;98.26
18858;BME280;9558;50.178;8.370;2023-02-04T09:27:24;100011.34;;;7.17;98.96
18858;BME280;9558;50.178;8.370;2023-02-04T09:29:50;100014.03;;;7.16;98.81
18858;BME280;9558;50.178;8.370;2023-02-04T09:32:17;100013.34;;;7.14;98.11
18858;BME280;9558;50.178;8.370;2023-02-04T09:34:44;100015.91;;;7.14;99.18
18858;BME280;9558;50.178;8.370;2023-02-04T09:37:11;100025.28;;;7.15;99.33
18858;BME280;9558;50.178;8.370;2023-02-04T09:39:38;100024.22;;;7.17;99.17
18858;BME280;9558;50.178;8.370;2023-02-04T09:42:04;100024.84;;;7.21;99.51
18858;BME280;9558;50.178;8.370;2023-02-04T09:44:31;100031.66;;;7.22;99.31
18858;BME280;9558;50.178;8.370;2023-02-04T09:46:59;100039.38;;;7.22;99.72
18858;BME280;9558;50.178;8.370;2023-02-04T09:49:26;100035.97;;;7.21;100.00
18858;BME280;9558;50.178;8.370;2023-02-04T09:51:55;100044.75;;;7.19;100.00
18858;BME280;9558;50.178;8.370;2023-02-04T09:54:22;100049.16;;;7.17;100.00
18858;BME280;9558;50.178;8.370;2023-02-04T09:56:51;100047.41;;;7.17;100.00
18858;BME280;9558;50.178;8.370;2023-02-04T09:59:19;100056.47;;;7.23;100.00
18858;BME280;9558;50.178;8.370;2023-02-04T10:01:47;100063.56;;;7.32;100.00
18858;BME280;9558;50.178;8.370;2023-02-04T10:04:17;100069.00;;;7.40;100.00
18858;BME280;9558;50.178;8.370;2023-02-04T10:06:45;100071.84;;;7.49;100.00
18858;BME280;9558;50.178;8.370;2023-02-04T10:09:14;100076.38;;;7.58;100.00
18858;BME280;9558;50.178;8.370;2023-02-04T10:11:43;100077.56;;;7.65;100.00
18858;BME280;9558;50.178;8.370;2023-02-04T10:14:15;100081.25;;;7.74;100.00
18858;BME280;9558;50.178;8.370;2023-02-04T10:16:49;100080.91;;;7.78;100.00
18858;BME280;9558;50.178;8.370;2023-02-04T10:19:17;100075.44;;;7.83;100.00
18858;BME280;9558;50.178;8.370;2023-02-04T10:21:46;100071.50;;;7.90;100.00
18858;BME280;9558;50.178;8.370;2023-02-04T10:24:16;100073.63;;;7.96;100.00
18858;BME280;9558;50.178;8.370;2023-02-04T10:26:44;100075.53;;;8.06;100.00
18858;BME280;9558;50.178;8.370;2023-02-04T10:29:16;100076.63;;;8.15;100.00
18858;BME280;9558;50.178;8.370;2023-02-04T10:31:46;100074.41;;;8.21;99.04
18858;BME280;9558;50.178;8.370;2023-02-04T10:34:14;100073.13;;;8.27;98.60
18858;BME280;9558;50.178;8.370;2023-02-04T10:36:43;100069.16;;;8.34;97.29
18858;BME280;9558;50.178;8.370;2023-02-04T10:39:14;100070.88;;;8.46;96.98
18858;BME280;9558;50.178;8.370;2023-02-04T10:41:46;100074.16;;;8.60;95.81
18858;BME280;9558;50.178;8.370;2023-02-04T10:44:15;100073.50;;;8.69;95.00
18858;BME280;9558;50.178;8.370;2023-02-04T10:46:42;100074.44;;;8.79;93.14
18858;BME280;9558;50.178;8.370;2023-02-04T10:49:17;100074.44;;;8.79;92.23
18858;BME280;9558;50.178;8.370;2023-02-04T10:51:45;100078.44;;;8.84;91.17
18858;BME280;9558;50.178;8.370;2023-02-04T10:54:14;100075.63;;;8.87;90.56
18858;BME280;9558;50.178;8.370;2023-02-04T10:56:56;100070.44;;;8.87;89.86
18858;BME280;9558;50.178;8.370;2023-02-04T10:59:23;100073.50;;;8.80;85.58
18858;BME280;9558;50.178;8.370;2023-02-04T11:01:54;100074.66;;;8.76;84.47
18858;BME280;9558;50.178;8.370;2023-02-04T11:04:21;100067.16;;;8.73;89.05
18858;BME280;9558;50.178;8.370;2023-02-04T11:06:47;100061.28;;;8.71;88.82
18858;BME280;9558;50.178;8.370;2023-02-04T11:09:15;100061.28;;;8.71;89.09
18858;BME280;9558;50.178;8.370;2023-02-04T11:11:44;100063.41;;;8.66;86.95
18858;BME280;9558;50.178;8.370;2023-02-04T11:14:27;100068.34;;;8.69;87.84
18858;BME280;9558;50.178;8.370;2023-02-04T11:16:54;100065.75;;;8.69;87.84
18858;BME280;9558;50.178;8.370;2023-02-04T11:19:33;100060.47;;;8.71;86.05
18858;BME280;9558;50.178;8.370;2023-02-04T11:22:06;100064.09;;;8.68;85.81
18858;BME280;9558;50.178;8.370;2023-02-04T11:24:34;100060.94;;;8.64;82.63
18858;BME280;9558;50.178;8.370;2023-02-04T11:27:06;100064.09;;;8.57;83.36
18858;BME280;9558;50.178;8.370;2023-02-04T11:29:35;100067.81;;;8.53;83.70
18858;BME280;9558;50.178;8.370;2023-02-04T11:32:04;100069.94;;;8.47;83.95
18858;BME280;9558;50.178;8.370;2023-02-04T11:34:45;100071.31;;;8.40;83.77
18858;BME280;9558;50.178;8.370;2023-02-04T11:37:18;100073.75;;;8.30;84.50
18858;BME280;9558;50.178;8.370;2023-02-04T11:39:57;100073.59;;;8.21;85.42
18858;BME280;9558;50.178;8.370;2023-02-04T11:42:30;100070.41;;;8.17;86.37
18858;BME280;9558;50.178;8.370;2023-02-04T11:44:59;100075.56;;;8.17;86.39
18858;BME280;9558;50.178;8.370;2023-02-04T11:47:33;100065.34;;;8.16;87.74
18858;BME280;9558;50.178;8.370;2023-02-04T11:50:02;100062.09;;;8.13;88.91
18858;BME280;9558;50.178;8.370;2023-02-04T11:52:29;100065.59;;;8.12;88.08
18858;BME280;9558;50.178;8.370;2023-02-04T11:54:59;100060.66;;;8.09;87.77
18858;BME280;9558;50.178;8.370;2023-02-04T11:57:26;100062.53;;;8.07;86.77
18858;BME280;9558;50.178;8.370;2023-02-04T11:59:52;100062.53;;;8.07;87.68
18858;BME280;9558;50.178;8.370;2023-02-04T12:02:21;100067.69;;;8.07;87.42
18858;BME280;9558;50.178;8.370;2023-02-04T12:04:55;100069.78;;;8.02;85.84
18858;BME280;9558;50.178;8.370;2023-02-04T12:07:26;100066.28;;;8.03;88.18
18858;BME280;9558;50.178;8.370;2023-02-04T12:09:53;100073.91;;;8.05;87.09
18858;BME280;9558;50.178;8.370;2023-02-04T12:12:26;100080.59;;;8.07;87.35
18858;BME280;9558;50.178;8.370;2023-02-04T12:15:01;100081.28;;;8.09;85.34
18858;BME280;9558;50.178;8.370;2023-02-04T12:17:28;100082.72;;;8.13;84.85
18858;BME280;9558;50.178;8.370;2023-02-04T12:19:55;100079.44;;;8.23;87.15
18858;BME280;9558;50.178;8.370;2023-02-04T12:22:21;100081.13;;;8.35;87.04
18858;BME280;9558;50.178;8.370;2023-02-04T12:24:48;100076.72;;;8.48;87.62
18858;BME280;9558;50.178;8.370;2023-02-04T12:27:16;100073.94;;;8.63;87.49
18858;BME280;9558;50.178;8.370;2023-02-04T12:29:44;100077.81;;;8.80;86.69
18858;BME280;9558;50.178;8.370;2023-02-04T12:32:11;100079.13;;;8.97;86.15
18858;BME280;9558;50.178;8.370;2023-02-04T12:34:38;100076.44;;;9.10;84.18
18858;BME280;9558;50.178;8.370;2023-02-04T12:37:05;100083.00;;;9.14;83.01
18858;BME280;9558;50.178;8.370;2023-02-04T12:39:31;100080.78;;;9.09;80.55
18858;BME280;9558;50.178;8.370;2023-02-04T12:41:58;100083.59;;;9.06;81.55
18858;BME280;9558;50.178;8.370;2023-02-04T12:44:24;100087.81;;;9.07;81.49
18858;BME280;9558;50.178;8.370;2023-02-04T12:46:53;100090.63;;;8.93;81.20
18858;BME280;9558;50.178;8.370;2023-02-04T12:49:19;100082.44;;;8.88;82.79
18858;BME280;9558;50.178;8.370;2023-02-04T12:51:49;100088.16;;;8.80;82.67
18858;BME280;9558;50.178;8.370;2023-02-04T12:54:15;100090.41;;;8.73;82.33
18858;BME280;9558;50.178;8.370;2023-02-04T12:56:42;100099.53;;;8.66;83.06
18858;BME280;9558;50.178;8.370;2023-02-04T12:59:08;100098.44;;;8.57;82.05
18858;BME280;9558;50.178;8.370;2023-02-04T13:01:35;100090.78;;;8.44;80.89
18858;BME280;9558;50.178;8.370;2023-02-04T13:04:03;100092.38;;;8.34;80.84
18858;BME280;9558;50.178;8.370;2023-02-04T13:06:30;100091.31;;;8.25;81.16
18858;BME280;9558;50.178;8.370;2023-02-04T13:08:56;100092.34;;;8.23;80.98
18858;BME280;9558;50.178;8.370;2023-02-04T13:11:23;100090.34;;;8.15;82.58
18858;BME280;9558;50.178;8.370;2023-02-04T13:13:49;100089.28;;;8.18;82.65
18858;BME280;9558;50.178;8.370;2023-02-04T13:16:16;100086.84;;;8.16;82.73